createdAt,value
2019-01-26T00:01:44.354Z,-2.75
2019-01-26T00:04:12.972Z,-2.74
2019-01-26T00:06:44.757Z,-2.74
2019-01-26T00:09:16.357Z,-2.71
2019-01-26T00:11:44.924Z,-2.74
2019-01-26T00:14:16.284Z,-2.64
2019-01-26T00:16:44.851Z,-2.70
2019-01-26T00:19:14.299Z,-2.70
2019-01-26T00:21:42.994Z,-2.66
2019-01-26T00:24:11.611Z,-2.60
2019-01-26T00:26:40.266Z,-2.64
2019-01-26T00:29:09.417Z,-2.70
2019-01-26T00:31:38.022Z,-2.57
2019-01-26T00:34:06.913Z,-2.65
2019-01-26T00:36:38.494Z,-2.73
2019-01-26T00:39:09.870Z,-2.61
2019-01-26T00:41:38.865Z,-2.62
2019-01-26T00:44:07.480Z,-2.58
2019-01-26T00:46:36.493Z,-2.66
2019-01-26T00:49:05.507Z,-2.69
2019-01-26T00:51:34.140Z,-2.63
2019-01-26T00:54:02.879Z,-2.71
2019-01-26T00:56:34.463Z,-2.67
2019-01-26T00:59:03.090Z,-2.66
2019-01-26T01:01:31.715Z,-2.59
2019-01-26T01:04:00.510Z,-2.58
2019-01-26T01:06:29.300Z,-2.60
2019-01-26T01:08:57.898Z,-2.63
2019-01-26T01:11:29.563Z,-2.58
2019-01-26T01:14:00.851Z,-2.51
2019-01-26T01:16:36.040Z,-2.54
2019-01-26T01:19:03.659Z,-2.59
2019-01-26T01:21:32.501Z,-2.58
2019-01-26T01:24:01.071Z,-2.60
2019-01-26T01:26:29.683Z,-2.66
2019-01-26T01:29:01.497Z,-2.67
2019-01-26T01:31:32.707Z,-2.56
2019-01-26T01:34:04.315Z,-2.57
2019-01-26T01:36:32.978Z,-2.56
2019-01-26T01:39:01.904Z,-2.58
2019-01-26T01:41:33.338Z,-2.50
2019-01-26T01:44:04.961Z,-2.46
2019-01-26T01:46:33.858Z,-2.44
2019-01-26T01:49:02.491Z,-2.46
2019-01-26T01:51:34.107Z,-2.50
2019-01-26T01:54:05.773Z,-2.46
2019-01-26T01:56:34.359Z,-2.43
2019-01-26T01:59:05.871Z,-2.41
2019-01-26T02:01:37.243Z,-2.48
2019-01-26T02:04:06.179Z,-2.45
2019-01-26T02:06:38.011Z,-2.45
2019-01-26T02:09:08.034Z,-2.44
2019-01-26T02:11:39.405Z,-2.48
2019-01-26T02:14:10.991Z,-2.37
2019-01-26T02:16:42.491Z,-2.48
2019-01-26T02:19:11.369Z,-2.42
2019-01-26T02:21:39.986Z,-2.42
2019-01-26T02:24:08.596Z,-2.44
2019-01-26T02:26:40.202Z,-2.40
2019-01-26T02:29:12.357Z,-2.40
2019-01-26T02:31:43.691Z,-2.41
2019-01-26T02:34:12.258Z,-2.41
2019-01-26T02:36:44.012Z,-2.38
2019-01-26T02:39:12.577Z,-2.38
2019-01-26T02:41:41.185Z,-2.44
2019-01-26T02:44:12.501Z,-2.36
2019-01-26T02:46:41.076Z,-2.38
2019-01-26T02:49:12.772Z,-2.38
2019-01-26T02:51:41.317Z,-2.39
2019-01-26T02:54:10.310Z,-2.41
2019-01-26T02:56:38.990Z,-2.37
2019-01-26T02:59:10.617Z,-2.34
2019-01-26T03:01:42.215Z,-2.36
2019-01-26T03:04:13.808Z,-2.39
2019-01-26T03:06:42.414Z,-2.40
2019-01-26T03:09:11.110Z,-2.47
2019-01-26T03:11:39.725Z,-2.46
2019-01-26T03:14:08.318Z,-2.46
2019-01-26T03:16:36.930Z,-2.38
2019-01-26T03:19:05.775Z,-2.37
2019-01-26T03:21:34.692Z,-2.38
2019-01-26T03:24:06.483Z,-2.38
2019-01-26T03:26:35.085Z,-2.41
2019-01-26T03:29:03.728Z,-2.40
2019-01-26T03:31:32.346Z,-2.41
2019-01-26T03:34:03.672Z,-2.36
2019-01-26T03:36:32.288Z,-2.24
2019-01-26T03:39:05.343Z,-2.33
2019-01-26T03:41:33.941Z,-2.35
2019-01-26T03:44:02.508Z,-2.31
2019-01-26T03:46:31.077Z,-2.34
2019-01-26T03:49:00.070Z,-2.33
2019-01-26T03:51:28.678Z,-2.37
2019-01-26T03:54:00.258Z,-2.20
2019-01-26T03:56:28.994Z,-2.24
2019-01-26T03:58:58.056Z,-2.22
2019-01-26T04:01:29.352Z,-2.23
2019-01-26T04:03:58.537Z,-2.25
2019-01-26T04:06:27.145Z,-2.26
2019-01-26T04:08:59.092Z,-2.27
2019-01-26T04:11:27.639Z,-2.27
2019-01-26T04:13:59.018Z,-2.19
2019-01-26T04:16:30.468Z,-2.25
2019-01-26T04:19:01.811Z,-2.14
2019-01-26T04:21:33.382Z,-2.16
2019-01-26T04:24:05.059Z,-2.17
2019-01-26T04:26:33.618Z,-2.21
2019-01-26T04:29:05.201Z,-2.23
2019-01-26T04:31:33.846Z,-2.20
2019-01-26T04:34:02.825Z,-2.14
2019-01-26T04:36:34.310Z,-2.14
2019-01-26T04:39:07.969Z,-2.08
2019-01-26T04:41:36.622Z,-2.10
2019-01-26T04:44:05.417Z,-2.00
2019-01-26T04:46:34.020Z,-1.94
2019-01-26T04:49:05.617Z,-1.99
2019-01-26T04:51:34.224Z,-1.86
2019-01-26T04:54:05.811Z,-1.94
2019-01-26T04:56:34.411Z,-1.92
2019-01-26T04:59:03.036Z,-1.84
2019-01-26T05:01:32.584Z,-1.78
2019-01-26T05:04:04.603Z,-1.81
2019-01-26T05:06:33.212Z,-1.84
2019-01-26T05:09:07.803Z,-1.74
2019-01-26T05:11:39.136Z,-1.64
2019-01-26T05:14:07.690Z,-1.66
2019-01-26T05:16:36.316Z,-1.66
2019-01-26T05:19:04.997Z,-1.63
2019-01-26T05:21:36.601Z,-1.70
2019-01-26T05:24:07.838Z,-1.62
2019-01-26T05:26:36.455Z,-1.50
2019-01-26T05:29:08.527Z,-1.40
2019-01-26T05:31:37.091Z,-1.41
2019-01-26T05:34:08.687Z,-1.20
2019-01-26T05:36:37.303Z,-1.30
2019-01-26T05:39:08.070Z,-1.37
2019-01-26T05:41:39.619Z,-1.28
2019-01-26T05:44:11.231Z,-1.29
2019-01-26T05:46:42.473Z,-1.36
2019-01-26T05:49:11.152Z,-1.24
2019-01-26T05:51:39.710Z,-1.24
2019-01-26T05:54:08.329Z,-1.16
2019-01-26T05:56:37.326Z,-1.20
2019-01-26T05:59:08.987Z,-1.20
2019-01-26T06:01:41.236Z,-1.16
2019-01-26T06:04:09.875Z,-0.98
2019-01-26T06:06:41.590Z,-1.04
2019-01-26T06:09:13.049Z,-0.99
2019-01-26T06:11:41.727Z,-0.92
2019-01-26T06:14:13.055Z,-0.89
2019-01-26T06:16:41.657Z,-0.89
2019-01-26T06:19:10.487Z,-0.84
2019-01-26T06:21:39.095Z,-0.75
2019-01-26T06:24:07.686Z,-0.78
2019-01-26T06:26:36.303Z,-0.55
2019-01-26T06:29:05.027Z,-0.59
2019-01-26T06:31:36.649Z,-0.47
2019-01-26T06:34:05.203Z,-0.41
2019-01-26T06:36:36.594Z,-0.32
2019-01-26T06:39:08.536Z,-0.24
2019-01-26T06:41:40.185Z,-0.17
2019-01-26T06:44:11.793Z,-0.10
2019-01-26T06:46:43.329Z,-0.06
2019-01-26T06:49:12.514Z,-0.08
2019-01-26T06:51:42.815Z,-0.03
2019-01-26T06:54:11.447Z,0.04
2019-01-26T06:56:43.035Z,0.14
2019-01-26T06:59:14.860Z,0.15
2019-01-26T07:01:46.424Z,0.25
2019-01-26T07:04:19.655Z,0.17
2019-01-26T07:06:52.529Z,0.23
2019-01-26T07:09:24.434Z,0.27
2019-01-26T07:11:53.053Z,0.20
2019-01-26T07:14:21.660Z,0.17
2019-01-26T07:16:50.249Z,0.26
2019-01-26T07:19:22.608Z,0.23
2019-01-26T07:21:54.294Z,0.26
2019-01-26T07:24:24.861Z,0.38
2019-01-26T07:26:53.531Z,0.30
2019-01-26T07:29:25.161Z,0.30
2019-01-26T07:31:56.462Z,0.34
2019-01-26T07:34:27.889Z,0.43
2019-01-26T07:36:56.514Z,0.46
2019-01-26T07:39:27.930Z,0.52
2019-01-26T07:41:56.859Z,0.57
2019-01-26T07:44:28.217Z,0.57
2019-01-26T07:46:56.816Z,0.64
2019-01-26T07:49:26.339Z,0.61
2019-01-26T07:51:54.937Z,0.70
2019-01-26T07:54:26.456Z,0.59
2019-01-26T07:56:55.012Z,0.53
2019-01-26T07:59:25.147Z,0.69
2019-01-26T08:01:56.376Z,0.70
2019-01-26T08:04:27.928Z,0.74
2019-01-26T08:06:59.158Z,0.70
2019-01-26T08:09:30.523Z,0.64
2019-01-26T08:12:02.030Z,0.74
2019-01-26T08:14:33.304Z,0.92
2019-01-26T08:17:05.607Z,0.85
2019-01-26T08:19:36.918Z,1.01
2019-01-26T08:22:05.899Z,0.99
2019-01-26T08:24:37.647Z,0.90
2019-01-26T08:27:06.241Z,0.89
2019-01-26T08:29:35.109Z,0.88
2019-01-26T08:32:06.441Z,0.87
2019-01-26T08:34:35.007Z,1.01
2019-01-26T08:37:03.604Z,0.98
2019-01-26T08:39:35.202Z,0.92
2019-01-26T08:42:06.585Z,1.05
2019-01-26T08:44:38.460Z,1.05
2019-01-26T08:47:07.121Z,1.12
2019-01-26T08:49:36.631Z,1.06
2019-01-26T08:52:05.365Z,1.09
2019-01-26T08:54:36.748Z,1.04
2019-01-26T08:57:08.544Z,1.11
2019-01-26T08:59:37.102Z,1.24
2019-01-26T09:02:10.034Z,1.34
2019-01-26T09:04:38.626Z,1.35
2019-01-26T09:07:09.955Z,1.49
2019-01-26T09:09:38.550Z,1.39
2019-01-26T09:12:07.099Z,1.44
2019-01-26T09:14:38.913Z,1.51
2019-01-26T09:17:07.566Z,1.38
2019-01-26T09:19:38.255Z,1.40
2019-01-26T09:22:09.693Z,1.33
2019-01-26T09:24:41.284Z,1.49
2019-01-26T09:27:10.287Z,1.53
2019-01-26T09:29:38.891Z,1.45
2019-01-26T09:32:07.642Z,1.48
2019-01-26T09:34:37.406Z,1.45
2019-01-26T09:37:08.788Z,1.58
2019-01-26T09:39:37.372Z,1.61
2019-01-26T09:42:09.262Z,1.63
2019-01-26T09:44:40.998Z,1.78
2019-01-26T09:47:09.554Z,1.48
2019-01-26T09:49:38.221Z,1.53
2019-01-26T09:52:07.035Z,1.52
2019-01-26T09:54:35.761Z,1.52
2019-01-26T09:57:04.469Z,1.54
2019-01-26T09:59:35.894Z,1.59
2019-01-26T10:02:04.631Z,1.68
2019-01-26T10:04:36.237Z,1.59
2019-01-26T10:07:05.208Z,1.67
2019-01-26T10:09:34.142Z,1.66
2019-01-26T10:12:03.163Z,1.60
2019-01-26T10:14:34.854Z,1.66
2019-01-26T10:17:06.548Z,1.67
2019-01-26T10:19:37.978Z,1.67
2019-01-26T10:22:09.718Z,1.72
2019-01-26T10:24:38.328Z,1.69
2019-01-26T10:27:07.142Z,1.67
2019-01-26T10:29:38.928Z,1.62
2019-01-26T10:32:10.506Z,1.68
2019-01-26T10:34:39.113Z,1.71
2019-01-26T10:37:09.508Z,1.68
2019-01-26T10:39:41.356Z,1.75
2019-01-26T10:42:11.608Z,1.76
2019-01-26T10:44:40.569Z,1.74
2019-01-26T10:47:09.338Z,1.81
2019-01-26T10:49:37.924Z,1.83
2019-01-26T10:52:06.659Z,1.73
2019-01-26T10:54:38.237Z,1.76
2019-01-26T10:57:07.277Z,1.77
2019-01-26T10:59:38.747Z,1.89
2019-01-26T11:02:10.581Z,1.80
2019-01-26T11:04:39.549Z,1.75
2019-01-26T11:07:10.890Z,1.96
2019-01-26T11:09:42.176Z,1.97
2019-01-26T11:12:13.650Z,1.96
2019-01-26T11:14:45.242Z,1.99
2019-01-26T11:17:17.043Z,2.13
2019-01-26T11:19:48.331Z,2.18
2019-01-26T11:22:20.024Z,2.16
2019-01-26T11:24:48.596Z,2.19
2019-01-26T11:27:17.755Z,2.18
2019-01-26T11:29:49.477Z,2.17
2019-01-26T11:32:22.693Z,2.18
2019-01-26T11:34:51.374Z,2.20
2019-01-26T11:37:24.500Z,2.18
2019-01-26T11:39:57.517Z,2.23
2019-01-26T11:42:27.660Z,2.33
2019-01-26T11:45:14.391Z,2.40
2019-01-26T11:47:43.003Z,2.32
2019-01-26T11:50:13.351Z,2.35
2019-01-26T11:52:41.963Z,2.29
2019-01-26T11:55:12.321Z,2.48
2019-01-26T11:57:40.943Z,2.54
2019-01-26T12:00:14.385Z,2.59
2019-01-26T12:02:45.027Z,2.60
2019-01-26T12:05:15.275Z,2.64
2019-01-26T12:07:43.835Z,2.66
2019-01-26T12:10:12.722Z,2.68
2019-01-26T12:12:44.504Z,2.81
2019-01-26T12:15:14.734Z,2.74
2019-01-26T12:17:46.482Z,2.85
2019-01-26T12:20:17.313Z,2.77
2019-01-26T12:22:46.277Z,2.89
2019-01-26T12:25:14.996Z,2.89
2019-01-26T12:27:46.557Z,2.77
2019-01-26T12:30:15.869Z,2.92
2019-01-26T12:32:44.540Z,2.92
2019-01-26T12:35:16.263Z,2.84
2019-01-26T12:37:45.014Z,2.77
2019-01-26T12:40:16.698Z,2.80
2019-01-26T12:42:45.320Z,2.97
2019-01-26T12:45:22.498Z,2.80
2019-01-26T12:47:53.329Z,2.68
2019-01-26T12:50:25.426Z,2.59
2019-01-26T12:52:54.389Z,2.62
2019-01-26T12:55:24.501Z,2.51
2019-01-26T12:57:56.097Z,2.61
2019-01-26T13:00:26.280Z,2.64
2019-01-26T13:02:54.894Z,2.70
2019-01-26T13:05:27.388Z,2.57
2019-01-26T13:07:58.901Z,2.58
2019-01-26T13:10:36.651Z,2.72
2019-01-26T13:13:06.898Z,2.69
2019-01-26T13:15:38.465Z,2.71
2019-01-26T13:18:07.285Z,2.82
2019-01-26T13:20:38.646Z,2.63
2019-01-26T13:23:07.254Z,2.74
2019-01-26T13:25:36.334Z,2.59
2019-01-26T13:28:05.387Z,2.72
2019-01-26T13:30:33.938Z,2.70
2019-01-26T13:33:05.676Z,2.73
2019-01-26T13:35:34.400Z,2.64
2019-01-26T13:38:06.091Z,2.64
2019-01-26T13:40:37.784Z,2.61
2019-01-26T13:43:06.994Z,2.54
2019-01-26T13:45:38.414Z,2.54
2019-01-26T13:48:07.224Z,2.46
2019-01-26T13:50:36.376Z,2.45
2019-01-26T13:53:05.305Z,2.40
2019-01-26T13:55:36.947Z,2.41
2019-01-26T13:58:08.414Z,2.59
2019-01-26T14:00:38.010Z,2.54
2019-01-26T14:03:07.202Z,2.64
2019-01-26T14:05:39.179Z,2.73
2019-01-26T14:08:07.894Z,2.50
2019-01-26T14:10:39.478Z,2.58
2019-01-26T14:13:08.078Z,2.54
2019-01-26T14:15:36.730Z,2.48
2019-01-26T14:18:05.478Z,2.76
2019-01-26T14:20:34.059Z,2.54
2019-01-26T14:23:02.832Z,2.57
2019-01-26T14:25:31.539Z,2.43
2019-01-26T14:28:00.253Z,2.43
2019-01-26T14:30:40.311Z,2.62
2019-01-26T14:33:11.938Z,2.44
2019-01-26T14:35:40.524Z,2.44
2019-01-26T14:38:12.157Z,2.48
2019-01-26T14:40:43.632Z,2.43
2019-01-26T14:43:12.246Z,2.37
2019-01-26T14:45:40.832Z,2.46
2019-01-26T14:48:09.822Z,2.51
2019-01-26T14:50:39.371Z,2.37
2019-01-26T14:53:08.196Z,2.33
2019-01-26T14:55:36.817Z,2.28
2019-01-26T14:58:08.422Z,2.24
2019-01-26T15:00:40.085Z,2.13
2019-01-26T15:03:08.750Z,2.20
2019-01-26T15:05:37.790Z,2.13
2019-01-26T15:08:06.531Z,2.07
2019-01-26T15:10:35.147Z,2.02
2019-01-26T15:13:03.862Z,1.96
2019-01-26T15:15:35.427Z,1.98
2019-01-26T15:18:04.577Z,2.00
2019-01-26T15:20:38.735Z,1.97
2019-01-26T15:23:08.589Z,1.91
2019-01-26T15:25:40.170Z,1.90
2019-01-26T15:28:08.779Z,1.78
2019-01-26T15:30:41.482Z,1.75
2019-01-26T15:33:12.286Z,1.76
2019-01-26T15:35:40.981Z,1.72
2019-01-26T15:38:09.724Z,1.61
2019-01-26T15:40:38.352Z,1.67
2019-01-26T15:43:07.180Z,1.64
2019-01-26T15:45:43.679Z,1.60
2019-01-26T15:48:12.357Z,1.55
2019-01-26T15:50:42.033Z,1.48
2019-01-26T15:53:11.278Z,1.42
2019-01-26T15:55:39.816Z,1.38
2019-01-26T15:58:08.481Z,1.35
2019-01-26T16:00:39.946Z,1.41
2019-01-26T16:03:08.981Z,1.44
2019-01-26T16:05:40.791Z,1.44
2019-01-26T16:08:09.851Z,1.41
2019-01-26T16:10:41.106Z,1.48
2019-01-26T16:13:12.347Z,1.40
2019-01-26T16:15:40.915Z,1.40
2019-01-26T16:18:11.961Z,1.38
2019-01-26T16:20:43.357Z,1.33
2019-01-26T16:23:15.040Z,1.36
2019-01-26T16:25:46.555Z,1.43
2019-01-26T16:28:18.208Z,1.48
2019-01-26T16:30:46.757Z,1.37
2019-01-26T16:33:18.100Z,1.45
2019-01-26T16:35:49.617Z,1.42
2019-01-26T16:38:21.005Z,1.44
2019-01-26T16:40:52.835Z,1.38
2019-01-26T16:43:24.229Z,1.35
2019-01-26T16:45:54.793Z,1.36
2019-01-26T16:48:26.269Z,1.41
2019-01-26T16:50:54.880Z,1.43
2019-01-26T16:53:26.363Z,1.46
2019-01-26T16:55:57.764Z,1.41
2019-01-26T16:58:26.354Z,1.46
2019-01-26T17:00:57.928Z,1.40
2019-01-26T17:03:26.911Z,1.31
2019-01-26T17:05:55.553Z,1.46
2019-01-26T17:08:26.839Z,1.43
2019-01-26T17:10:55.436Z,1.32
2019-01-26T17:13:24.580Z,1.29
2019-01-26T17:15:56.277Z,1.26
2019-01-26T17:18:24.990Z,1.21
2019-01-26T17:20:56.457Z,1.29
2019-01-26T17:23:25.425Z,1.41
2019-01-26T17:25:58.737Z,1.36
2019-01-26T17:28:30.046Z,1.39
2019-01-26T17:30:58.640Z,1.28
2019-01-26T17:33:27.299Z,1.24
2019-01-26T17:35:55.885Z,1.19
2019-01-26T17:38:24.435Z,1.12
2019-01-26T17:40:54.958Z,1.16
2019-01-26T17:43:25.197Z,1.24
2019-01-26T17:45:55.359Z,1.20
2019-01-26T17:48:26.866Z,1.24
2019-01-26T17:50:55.477Z,1.27
2019-01-26T17:53:27.136Z,1.28
2019-01-26T17:55:55.735Z,1.31
2019-01-26T17:58:24.286Z,1.30
2019-01-26T18:00:56.421Z,1.30
2019-01-26T18:03:25.078Z,1.24
2019-01-26T18:05:55.290Z,1.18
2019-01-26T18:08:29.935Z,1.21
2019-01-26T18:10:58.489Z,1.13
2019-01-26T18:13:27.091Z,1.22
2019-01-26T18:15:55.640Z,1.16
2019-01-26T18:18:24.688Z,1.23
2019-01-26T18:20:56.355Z,1.28
2019-01-26T18:23:25.835Z,1.17
2019-01-26T18:25:55.056Z,1.28
2019-01-26T18:28:25.147Z,1.22
2019-01-26T18:30:56.651Z,1.29
2019-01-26T18:33:25.311Z,1.23
2019-01-26T18:35:56.609Z,1.16
2019-01-26T18:38:25.164Z,1.10
2019-01-26T18:40:56.611Z,1.15
2019-01-26T18:43:25.234Z,1.28
2019-01-26T18:45:57.018Z,1.18
2019-01-26T18:48:25.742Z,1.23
2019-01-26T18:50:56.417Z,1.23
2019-01-26T18:53:25.189Z,1.31
2019-01-26T18:55:56.532Z,1.25
2019-01-26T18:58:25.135Z,1.17
2019-01-26T19:01:00.117Z,1.10
2019-01-26T19:03:34.783Z,1.17
2019-01-26T19:06:03.492Z,1.11
2019-01-26T19:08:32.143Z,1.15
2019-01-26T19:11:00.779Z,1.17
2019-01-26T19:13:32.375Z,1.24
2019-01-26T19:16:01.172Z,1.38
2019-01-26T19:18:33.004Z,1.15
2019-01-26T19:21:04.453Z,1.13
2019-01-26T19:23:35.704Z,1.15
2019-01-26T19:26:04.965Z,1.09
2019-01-26T19:28:36.210Z,1.18
2019-01-26T19:31:04.943Z,1.12
2019-01-26T19:33:36.804Z,1.22
2019-01-26T19:36:05.897Z,1.22
2019-01-26T19:38:34.506Z,1.23
2019-01-26T19:41:03.116Z,1.21
2019-01-26T19:43:31.679Z,1.20
2019-01-26T19:46:00.704Z,1.19
2019-01-26T19:48:29.350Z,1.15
2019-01-26T19:50:58.406Z,1.10
2019-01-26T19:53:27.129Z,1.21
2019-01-26T19:55:58.635Z,1.17
2019-01-26T19:58:27.274Z,1.11
2019-01-26T20:00:56.097Z,1.15
2019-01-26T20:03:24.712Z,1.18
2019-01-26T20:05:55.991Z,1.15
2019-01-26T20:08:25.003Z,1.24
2019-01-26T20:10:58.099Z,1.33
2019-01-26T20:13:29.227Z,1.36
2019-01-26T20:15:57.815Z,1.33
2019-01-26T20:18:26.520Z,1.40
2019-01-26T20:20:55.201Z,1.35
2019-01-26T20:23:29.680Z,1.32
2019-01-26T20:26:01.492Z,1.29
2019-01-26T20:28:33.246Z,1.42
2019-01-26T20:31:01.866Z,1.49
2019-01-26T20:33:30.417Z,1.39
2019-01-26T20:35:59.393Z,1.52
2019-01-26T20:38:38.827Z,1.51
2019-01-26T20:41:14.172Z,1.59
2019-01-26T20:43:54.478Z,1.59
2019-01-26T20:46:44.662Z,1.65
2019-01-26T20:49:25.211Z,1.60
2019-01-26T20:52:01.716Z,1.63
2019-01-26T20:54:46.062Z,1.64
2019-01-26T20:57:34.006Z,1.63
2019-01-26T21:00:03.052Z,1.72
2019-01-26T21:02:31.708Z,1.77
2019-01-26T21:05:00.381Z,1.75
2019-01-26T21:07:31.981Z,1.74
2019-01-26T21:10:00.531Z,1.81
2019-01-26T21:12:29.124Z,1.81
2019-01-26T21:15:04.408Z,1.87
2019-01-26T21:17:28.049Z,1.96
2019-01-26T21:19:56.597Z,1.94
2019-01-26T21:22:25.584Z,1.92
2019-01-26T21:24:54.146Z,1.99
2019-01-26T21:27:22.851Z,2.02
2019-01-26T21:29:54.493Z,2.08
2019-01-26T21:32:25.890Z,2.13
2019-01-26T21:34:54.569Z,2.14
2019-01-26T21:37:24.522Z,2.22
2019-01-26T21:40:16.544Z,2.17
2019-01-26T21:42:45.182Z,2.31
2019-01-26T21:45:15.521Z,2.31
2019-01-26T21:47:44.403Z,2.35
2019-01-26T21:50:16.067Z,2.38
2019-01-26T21:52:44.697Z,2.43
2019-01-26T21:55:16.540Z,2.50
2019-01-26T21:57:45.624Z,2.55
2019-01-26T22:00:25.477Z,2.56
2019-01-26T22:02:56.948Z,2.69
2019-01-26T22:05:25.617Z,2.74
2019-01-26T22:07:59.748Z,2.76
2019-01-26T22:10:31.013Z,2.82
2019-01-26T22:12:59.631Z,2.86
2019-01-26T22:15:31.518Z,2.90
2019-01-26T22:18:00.139Z,2.90
2019-01-26T22:20:29.374Z,2.97
2019-01-26T22:22:58.818Z,3.03
2019-01-26T22:25:27.531Z,3.08
2019-01-26T22:27:56.724Z,3.08
2019-01-26T22:30:28.170Z,3.15
2019-01-26T22:32:56.795Z,3.18
2019-01-26T22:35:25.456Z,3.23
2019-01-26T22:37:54.120Z,3.19
2019-01-26T22:40:25.121Z,3.38
2019-01-26T22:42:57.000Z,3.35
2019-01-26T22:45:26.065Z,3.32
2019-01-26T22:47:54.698Z,3.32
2019-01-26T22:50:25.733Z,3.40
2019-01-26T22:52:54.740Z,3.35
2019-01-26T22:55:23.616Z,3.41
2019-01-26T22:57:56.140Z,3.41
2019-01-26T23:00:53.727Z,3.53
2019-01-26T23:03:37.166Z,3.55
2019-01-26T23:06:23.712Z,3.53
2019-01-26T23:08:55.564Z,3.51
2019-01-26T23:11:30.220Z,3.49
2019-01-26T23:14:04.574Z,3.46
2019-01-26T23:16:42.101Z,3.46
2019-01-26T23:19:13.712Z,3.34
2019-01-26T23:22:07.907Z,3.39
2019-01-26T23:25:12.762Z,3.48
2019-01-26T23:27:53.368Z,3.42
2019-01-26T23:30:47.386Z,3.42
2019-01-26T23:33:18.789Z,3.41
2019-01-26T23:35:47.418Z,3.41
2019-01-26T23:38:19.016Z,3.39
2019-01-26T23:40:47.735Z,3.39
2019-01-26T23:43:19.525Z,3.36
2019-01-26T23:45:48.139Z,3.43
2019-01-26T23:48:19.828Z,3.42
2019-01-26T23:50:48.496Z,3.47
2019-01-26T23:53:17.075Z,3.51
2019-01-26T23:55:45.749Z,3.46
2019-01-26T23:58:14.304Z,3.48
